sensor_id;sensor_type;location;lat;lon;timestamp;P1;durP1;ratioP1;P2;durP2;ratioP2
52574;SDS011;38468;48.114;-1.684;2024-03-17T00:01:27;18.85;;;6.53;;
52574;SDS011;38468;48.114;-1.684;2024-03-17T00:03:28;17.92;;;7.13;;
52574;SDS011;38468;48.114;-1.684;2024-03-17T00:05:29;22.13;;;6.72;;
52574;SDS011;38468;48.114;-1.684;2024-03-17T00:07:29;31.50;;;8.20;;
52574;SDS011;38468;48.114;-1.684;2024-03-17T00:09:30;20.00;;;6.07;;
52574;SDS011;38468;48.114;-1.684;2024-03-17T00:11:31;20.77;;;6.15;;
52574;SDS011;38468;48.114;-1.684;2024-03-17T00:13:33;27.58;;;7.28;;
52574;SDS011;38468;48.114;-1.684;2024-03-17T00:15:33;21.55;;;6.63;;
52574;SDS011;38468;48.114;-1.684;2024-03-17T00:17:34;23.42;;;7.78;;
52574;SDS011;38468;48.114;-1.684;2024-03-17T00:19:34;23.77;;;7.20;;
52574;SDS011;38468;48.114;-1.684;2024-03-17T00:21:36;23.80;;;7.13;;
52574;SDS011;38468;48.114;-1.684;2024-03-17T00:23:36;24.92;;;7.35;;
52574;SDS011;38468;48.114;-1.684;2024-03-17T00:25:38;22.17;;;7.03;;
52574;SDS011;38468;48.114;-1.684;2024-03-17T00:27:39;26.13;;;6.68;;
52574;SDS011;38468;48.114;-1.684;2024-03-17T00:29:44;25.02;;;7.72;;
52574;SDS011;38468;48.114;-1.684;2024-03-17T00:31:45;18.48;;;5.65;;
52574;SDS011;38468;48.114;-1.684;2024-03-17T00:33:46;21.92;;;6.53;;
52574;SDS011;38468;48.114;-1.684;2024-03-17T00:35:46;23.35;;;6.75;;
52574;SDS011;38468;48.114;-1.684;2024-03-17T00:37:47;32.83;;;7.53;;
52574;SDS011;38468;48.114;-1.684;2024-03-17T00:39:49;22.38;;;6.90;;
52574;SDS011;38468;48.114;-1.684;2024-03-17T00:41:50;22.75;;;6.93;;
52574;SDS011;38468;48.114;-1.684;2024-03-17T00:43:50;20.58;;;6.60;;
52574;SDS011;38468;48.114;-1.684;2024-03-17T00:45:52;27.17;;;6.47;;
52574;SDS011;38468;48.114;-1.684;2024-03-17T00:47:53;21.45;;;7.82;;
52574;SDS011;38468;48.114;-1.684;2024-03-17T00:49:53;19.63;;;6.40;;
52574;SDS011;38468;48.114;-1.684;2024-03-17T00:51:54;24.42;;;8.57;;
52574;SDS011;38468;48.114;-1.684;2024-03-17T00:53:54;23.00;;;5.70;;
52574;SDS011;38468;48.114;-1.684;2024-03-17T00:55:56;19.08;;;6.22;;
52574;SDS011;38468;48.114;-1.684;2024-03-17T00:58:01;23.00;;;6.70;;
52574;SDS011;38468;48.114;-1.684;2024-03-17T01:00:01;17.35;;;6.57;;
52574;SDS011;38468;48.114;-1.684;2024-03-17T01:02:02;22.00;;;7.35;;
52574;SDS011;38468;48.114;-1.684;2024-03-17T01:04:03;20.80;;;7.35;;
52574;SDS011;38468;48.114;-1.684;2024-03-17T01:06:04;26.08;;;7.13;;
52574;SDS011;38468;48.114;-1.684;2024-03-17T01:08:05;22.33;;;7.28;;
52574;SDS011;38468;48.114;-1.684;2024-03-17T01:10:05;25.67;;;6.93;;
52574;SDS011;38468;48.114;-1.684;2024-03-17T01:12:08;17.80;;;5.97;;
52574;SDS011;38468;48.114;-1.684;2024-03-17T01:14:09;19.73;;;6.85;;
52574;SDS011;38468;48.114;-1.684;2024-03-17T01:16:09;25.33;;;7.53;;
52574;SDS011;38468;48.114;-1.684;2024-03-17T01:18:10;29.55;;;7.97;;
52574;SDS011;38468;48.114;-1.684;2024-03-17T01:20:11;28.02;;;7.15;;
52574;SDS011;38468;48.114;-1.684;2024-03-17T01:22:11;23.65;;;6.15;;
52574;SDS011;38468;48.114;-1.684;2024-03-17T01:24:12;18.98;;;7.00;;
52574;SDS011;38468;48.114;-1.684;2024-03-17T01:26:13;31.65;;;6.38;;
52574;SDS011;38468;48.114;-1.684;2024-03-17T01:28:13;23.70;;;6.22;;
52574;SDS011;38468;48.114;-1.684;2024-03-17T01:30:14;22.08;;;6.72;;
52574;SDS011;38468;48.114;-1.684;2024-03-17T01:32:15;20.83;;;6.65;;
52574;SDS011;38468;48.114;-1.684;2024-03-17T01:34:15;22.42;;;7.05;;
52574;SDS011;38468;48.114;-1.684;2024-03-17T01:36:16;20.15;;;6.25;;
52574;SDS011;38468;48.114;-1.684;2024-03-17T01:38:17;24.27;;;6.13;;
52574;SDS011;38468;48.114;-1.684;2024-03-17T01:40:17;18.63;;;6.00;;
52574;SDS011;38468;48.114;-1.684;2024-03-17T01:42:18;19.90;;;6.10;;
52574;SDS011;38468;48.114;-1.684;2024-03-17T01:44:23;29.33;;;7.20;;
52574;SDS011;38468;48.114;-1.684;2024-03-17T01:46:28;20.95;;;6.47;;
52574;SDS011;38468;48.114;-1.684;2024-03-17T01:48:29;20.02;;;6.78;;
52574;SDS011;38468;48.114;-1.684;2024-03-17T01:50:34;20.15;;;5.22;;
52574;SDS011;38468;48.114;-1.684;2024-03-17T01:52:36;19.70;;;6.75;;
52574;SDS011;38468;48.114;-1.684;2024-03-17T01:54:37;27.98;;;7.70;;
52574;SDS011;38468;48.114;-1.684;2024-03-17T01:56:38;17.25;;;5.35;;
52574;SDS011;38468;48.114;-1.684;2024-03-17T01:58:39;24.05;;;7.05;;
52574;SDS011;38468;48.114;-1.684;2024-03-17T02:00:44;17.83;;;6.78;;
52574;SDS011;38468;48.114;-1.684;2024-03-17T02:02:45;20.90;;;6.18;;
52574;SDS011;38468;48.114;-1.684;2024-03-17T02:04:45;19.17;;;7.85;;
52574;SDS011;38468;48.114;-1.684;2024-03-17T02:06:46;13.80;;;6.07;;
52574;SDS011;38468;48.114;-1.684;2024-03-17T02:08:50;30.25;;;9.40;;
52574;SDS011;38468;48.114;-1.684;2024-03-17T02:10:52;24.10;;;7.03;;
52574;SDS011;38468;48.114;-1.684;2024-03-17T02:12:55;23.73;;;5.97;;
52574;SDS011;38468;48.114;-1.684;2024-03-17T02:14:59;25.50;;;7.22;;
52574;SDS011;38468;48.114;-1.684;2024-03-17T02:17:00;17.33;;;6.32;;
52574;SDS011;38468;48.114;-1.684;2024-03-17T02:19:01;20.73;;;7.55;;
52574;SDS011;38468;48.114;-1.684;2024-03-17T02:21:01;19.90;;;6.32;;
52574;SDS011;38468;48.114;-1.684;2024-03-17T02:23:02;17.58;;;6.50;;
52574;SDS011;38468;48.114;-1.684;2024-03-17T02:25:03;18.50;;;6.32;;
52574;SDS011;38468;48.114;-1.684;2024-03-17T02:27:04;19.02;;;7.47;;
52574;SDS011;38468;48.114;-1.684;2024-03-17T02:29:05;23.88;;;7.25;;
52574;SDS011;38468;48.114;-1.684;2024-03-17T02:31:06;21.30;;;6.50;;
52574;SDS011;38468;48.114;-1.684;2024-03-17T02:33:08;16.55;;;6.65;;
52574;SDS011;38468;48.114;-1.684;2024-03-17T02:35:08;21.98;;;6.25;;
52574;SDS011;38468;48.114;-1.684;2024-03-17T02:37:11;17.98;;;6.45;;
52574;SDS011;38468;48.114;-1.684;2024-03-17T02:39:12;16.85;;;6.47;;
52574;SDS011;38468;48.114;-1.684;2024-03-17T02:41:34;19.20;;;6.63;;
52574;SDS011;38468;48.114;-1.684;2024-03-17T02:43:34;15.90;;;7.03;;
52574;SDS011;38468;48.114;-1.684;2024-03-17T02:45:36;27.85;;;6.70;;
52574;SDS011;38468;48.114;-1.684;2024-03-17T02:47:36;16.55;;;6.53;;
52574;SDS011;38468;48.114;-1.684;2024-03-17T02:49:37;13.50;;;5.68;;
52574;SDS011;38468;48.114;-1.684;2024-03-17T02:51:39;14.23;;;5.63;;
52574;SDS011;38468;48.114;-1.684;2024-03-17T02:53:40;20.02;;;6.90;;
52574;SDS011;38468;48.114;-1.684;2024-03-17T02:55:42;21.85;;;6.60;;
52574;SDS011;38468;48.114;-1.684;2024-03-17T02:57:43;14.95;;;6.13;;
52574;SDS011;38468;48.114;-1.684;2024-03-17T02:59:44;13.13;;;5.18;;
52574;SDS011;38468;48.114;-1.684;2024-03-17T03:01:46;19.70;;;7.05;;
52574;SDS011;38468;48.114;-1.684;2024-03-17T03:03:47;29.08;;;8.50;;
52574;SDS011;38468;48.114;-1.684;2024-03-17T03:05:47;26.52;;;7.00;;
52574;SDS011;38468;48.114;-1.684;2024-03-17T03:07:49;30.67;;;8.37;;
52574;SDS011;38468;48.114;-1.684;2024-03-17T03:09:50;22.85;;;6.28;;
52574;SDS011;38468;48.114;-1.684;2024-03-17T03:11:51;13.50;;;6.07;;
52574;SDS011;38468;48.114;-1.684;2024-03-17T03:13:52;16.17;;;5.93;;
52574;SDS011;38468;48.114;-1.684;2024-03-17T03:15:53;18.52;;;7.25;;
52574;SDS011;38468;48.114;-1.684;2024-03-17T03:17:53;16.10;;;6.85;;
52574;SDS011;38468;48.114;-1.684;2024-03-17T03:19:54;17.02;;;6.60;;
52574;SDS011;38468;48.114;-1.684;2024-03-17T03:21:55;19.45;;;6.95;;
52574;SDS011;38468;48.114;-1.684;2024-03-17T03:23:56;15.25;;;5.38;;
52574;SDS011;38468;48.114;-1.684;2024-03-17T03:26:00;27.10;;;7.95;;
52574;SDS011;38468;48.114;-1.684;2024-03-17T03:28:05;16.83;;;6.72;;
52574;SDS011;38468;48.114;-1.684;2024-03-17T03:30:06;14.70;;;5.43;;
52574;SDS011;38468;48.114;-1.684;2024-03-17T03:32:08;12.88;;;6.22;;
52574;SDS011;38468;48.114;-1.684;2024-03-17T03:34:09;16.63;;;6.80;;
52574;SDS011;38468;48.114;-1.684;2024-03-17T03:36:11;20.67;;;6.43;;
52574;SDS011;38468;48.114;-1.684;2024-03-17T03:38:14;21.17;;;5.65;;
52574;SDS011;38468;48.114;-1.684;2024-03-17T03:40:15;14.30;;;6.13;;
52574;SDS011;38468;48.114;-1.684;2024-03-17T03:42:18;11.15;;;5.25;;
52574;SDS011;38468;48.114;-1.684;2024-03-17T03:44:19;17.48;;;6.22;;
52574;SDS011;38468;48.114;-1.684;2024-03-17T03:46:19;13.15;;;5.90;;
52574;SDS011;38468;48.114;-1.684;2024-03-17T03:48:20;13.45;;;5.50;;
52574;SDS011;38468;48.114;-1.684;2024-03-17T03:50:21;14.52;;;5.50;;
52574;SDS011;38468;48.114;-1.684;2024-03-17T03:52:23;14.30;;;5.20;;
52574;SDS011;38468;48.114;-1.684;2024-03-17T03:54:25;9.05;;;4.53;;
52574;SDS011;38468;48.114;-1.684;2024-03-17T03:56:25;8.65;;;4.60;;
52574;SDS011;38468;48.114;-1.684;2024-03-17T03:58:27;20.80;;;5.68;;
52574;SDS011;38468;48.114;-1.684;2024-03-17T04:00:29;14.20;;;5.32;;
52574;SDS011;38468;48.114;-1.684;2024-03-17T04:02:31;15.95;;;5.80;;
52574;SDS011;38468;48.114;-1.684;2024-03-17T04:04:33;14.82;;;4.78;;
52574;SDS011;38468;48.114;-1.684;2024-03-17T04:06:34;11.88;;;4.65;;
52574;SDS011;38468;48.114;-1.684;2024-03-17T04:08:37;13.88;;;4.68;;
52574;SDS011;38468;48.114;-1.684;2024-03-17T04:10:43;13.80;;;4.63;;
52574;SDS011;38468;48.114;-1.684;2024-03-17T04:12:44;11.13;;;4.32;;
52574;SDS011;38468;48.114;-1.684;2024-03-17T04:14:45;15.98;;;5.57;;
52574;SDS011;38468;48.114;-1.684;2024-03-17T04:16:46;10.48;;;4.20;;
52574;SDS011;38468;48.114;-1.684;2024-03-17T04:18:47;11.32;;;4.18;;
52574;SDS011;38468;48.114;-1.684;2024-03-17T04:20:47;11.23;;;4.45;;
52574;SDS011;38468;48.114;-1.684;2024-03-17T04:22:48;14.43;;;5.38;;
52574;SDS011;38468;48.114;-1.684;2024-03-17T04:24:49;8.90;;;4.13;;
52574;SDS011;38468;48.114;-1.684;2024-03-17T04:26:54;11.82;;;4.15;;
52574;SDS011;38468;48.114;-1.684;2024-03-17T04:28:55;12.13;;;4.15;;
52574;SDS011;38468;48.114;-1.684;2024-03-17T04:31:03;17.03;;;5.03;;
52574;SDS011;38468;48.114;-1.684;2024-03-17T04:33:05;17.10;;;5.20;;
52574;SDS011;38468;48.114;-1.684;2024-03-17T04:35:06;11.20;;;5.30;;
52574;SDS011;38468;48.114;-1.684;2024-03-17T04:37:07;15.30;;;5.05;;
52574;SDS011;38468;48.114;-1.684;2024-03-17T04:39:08;13.23;;;5.35;;
52574;SDS011;38468;48.114;-1.684;2024-03-17T04:41:08;7.88;;;4.35;;
52574;SDS011;38468;48.114;-1.684;2024-03-17T04:43:09;14.60;;;4.55;;
52574;SDS011;38468;48.114;-1.684;2024-03-17T04:45:10;13.73;;;5.53;;
52574;SDS011;38468;48.114;-1.684;2024-03-17T04:47:11;13.27;;;5.13;;
52574;SDS011;38468;48.114;-1.684;2024-03-17T04:49:12;13.85;;;4.93;;
52574;SDS011;38468;48.114;-1.684;2024-03-17T04:51:16;12.82;;;4.95;;
52574;SDS011;38468;48.114;-1.684;2024-03-17T04:53:17;12.50;;;5.30;;
52574;SDS011;38468;48.114;-1.684;2024-03-17T04:55:17;16.83;;;5.88;;
52574;SDS011;38468;48.114;-1.684;2024-03-17T04:57:19;11.93;;;5.27;;
52574;SDS011;38468;48.114;-1.684;2024-03-17T04:59:19;8.13;;;3.85;;
52574;SDS011;38468;48.114;-1.684;2024-03-17T05:01:25;15.45;;;4.15;;
52574;SDS011;38468;48.114;-1.684;2024-03-17T05:03:26;12.23;;;5.20;;
52574;SDS011;38468;48.114;-1.684;2024-03-17T05:05:26;12.13;;;4.78;;
52574;SDS011;38468;48.114;-1.684;2024-03-17T05:07:27;7.80;;;4.60;;
52574;SDS011;38468;48.114;-1.684;2024-03-17T05:09:28;13.80;;;4.03;;
52574;SDS011;38468;48.114;-1.684;2024-03-17T05:11:28;9.68;;;4.47;;
52574;SDS011;38468;48.114;-1.684;2024-03-17T05:13:29;9.60;;;3.90;;
52574;SDS011;38468;48.114;-1.684;2024-03-17T05:15:29;10.07;;;4.43;;
52574;SDS011;38468;48.114;-1.684;2024-03-17T05:17:30;13.98;;;4.22;;
52574;SDS011;38468;48.114;-1.684;2024-03-17T05:19:31;14.38;;;4.35;;
52574;SDS011;38468;48.114;-1.684;2024-03-17T05:21:31;9.50;;;3.80;;
52574;SDS011;38468;48.114;-1.684;2024-03-17T05:23:33;9.57;;;4.00;;
52574;SDS011;38468;48.114;-1.684;2024-03-17T05:25:34;5.10;;;3.22;;
52574;SDS011;38468;48.114;-1.684;2024-03-17T05:27:37;7.03;;;3.70;;
52574;SDS011;38468;48.114;-1.684;2024-03-17T05:29:37;9.95;;;3.35;;
52574;SDS011;38468;48.114;-1.684;2024-03-17T05:31:38;10.32;;;3.92;;
52574;SDS011;38468;48.114;-1.684;2024-03-17T05:33:39;6.65;;;3.38;;
52574;SDS011;38468;48.114;-1.684;2024-03-17T05:35:40;8.88;;;3.80;;
52574;SDS011;38468;48.114;-1.684;2024-03-17T05:37:40;6.72;;;3.25;;
52574;SDS011;38468;48.114;-1.684;2024-03-17T05:39:41;6.43;;;3.47;;
52574;SDS011;38468;48.114;-1.684;2024-03-17T05:41:42;5.47;;;3.78;;
52574;SDS011;38468;48.114;-1.684;2024-03-17T05:43:43;6.88;;;3.75;;
52574;SDS011;38468;48.114;-1.684;2024-03-17T05:45:44;8.38;;;4.15;;
52574;SDS011;38468;48.114;-1.684;2024-03-17T05:47:45;6.75;;;3.65;;
52574;SDS011;38468;48.114;-1.684;2024-03-17T05:49:45;6.63;;;3.67;;
52574;SDS011;38468;48.114;-1.684;2024-03-17T05:51:46;6.88;;;3.20;;
52574;SDS011;38468;48.114;-1.684;2024-03-17T05:53:46;4.65;;;3.20;;
52574;SDS011;38468;48.114;-1.684;2024-03-17T05:55:47;6.75;;;3.15;;
52574;SDS011;38468;48.114;-1.684;2024-03-17T05:57:48;8.82;;;3.20;;
52574;SDS011;38468;48.114;-1.684;2024-03-17T05:59:48;6.75;;;2.67;;
52574;SDS011;38468;48.114;-1.684;2024-03-17T06:01:49;6.57;;;2.80;;
52574;SDS011;38468;48.114;-1.684;2024-03-17T06:03:50;6.32;;;3.13;;
52574;SDS011;38468;48.114;-1.684;2024-03-17T06:05:50;4.20;;;2.80;;
52574;SDS011;38468;48.114;-1.684;2024-03-17T06:07:51;4.22;;;2.83;;
52574;SDS011;38468;48.114;-1.684;2024-03-17T06:09:51;4.75;;;3.15;;
52574;SDS011;38468;48.114;-1.684;2024-03-17T06:11:52;5.10;;;3.08;;
52574;SDS011;38468;48.114;-1.684;2024-03-17T06:13:56;2.72;;;2.50;;
52574;SDS011;38468;48.114;-1.684;2024-03-17T06:16:12;5.00;;;2.78;;
52574;SDS011;38468;48.114;-1.684;2024-03-17T06:18:15;3.75;;;2.60;;
52574;SDS011;38468;48.114;-1.684;2024-03-17T06:20:18;5.55;;;2.60;;
52574;SDS011;38468;48.114;-1.684;2024-03-17T06:22:19;4.50;;;2.70;;
52574;SDS011;38468;48.114;-1.684;2024-03-17T06:24:20;3.38;;;2.17;;
52574;SDS011;38468;48.114;-1.684;2024-03-17T06:26:21;6.72;;;2.70;;
52574;SDS011;38468;48.114;-1.684;2024-03-17T06:28:21;6.22;;;2.90;;
52574;SDS011;38468;48.114;-1.684;2024-03-17T06:30:22;7.70;;;2.95;;
52574;SDS011;38468;48.114;-1.684;2024-03-17T06:32:23;8.10;;;2.67;;
52574;SDS011;38468;48.114;-1.684;2024-03-17T06:34:24;7.10;;;3.10;;
52574;SDS011;38468;48.114;-1.684;2024-03-17T06:36:24;4.45;;;2.65;;
52574;SDS011;38468;48.114;-1.684;2024-03-17T06:38:25;5.55;;;3.00;;
52574;SDS011;38468;48.114;-1.684;2024-03-17T06:40:26;4.47;;;2.65;;
52574;SDS011;38468;48.114;-1.684;2024-03-17T06:42:27;3.00;;;2.70;;
52574;SDS011;38468;48.114;-1.684;2024-03-17T06:44:27;8.18;;;3.22;;
52574;SDS011;38468;48.114;-1.684;2024-03-17T06:46:30;3.70;;;3.03;;
52574;SDS011;38468;48.114;-1.684;2024-03-17T06:48:31;5.45;;;2.80;;
52574;SDS011;38468;48.114;-1.684;2024-03-17T06:50:32;4.35;;;2.28;;
52574;SDS011;38468;48.114;-1.684;2024-03-17T06:52:33;2.67;;;2.42;;
52574;SDS011;38468;48.114;-1.684;2024-03-17T06:54:34;2.50;;;2.33;;
52574;SDS011;38468;48.114;-1.684;2024-03-17T06:56:35;5.05;;;2.63;;
52574;SDS011;38468;48.114;-1.684;2024-03-17T06:58:37;2.55;;;2.05;;
52574;SDS011;38468;48.114;-1.684;2024-03-17T07:00:41;2.40;;;2.20;;
52574;SDS011;38468;48.114;-1.684;2024-03-17T07:02:44;3.17;;;2.08;;
52574;SDS011;38468;48.114;-1.684;2024-03-17T07:04:44;4.80;;;2.00;;
52574;SDS011;38468;48.114;-1.684;2024-03-17T07:06:48;4.43;;;2.03;;
52574;SDS011;38468;48.114;-1.684;2024-03-17T07:08:50;5.78;;;1.95;;
52574;SDS011;38468;48.114;-1.684;2024-03-17T07:11:03;2.00;;;1.90;;
52574;SDS011;38468;48.114;-1.684;2024-03-17T07:13:06;2.20;;;1.58;;
52574;SDS011;38468;48.114;-1.684;2024-03-17T07:15:07;2.05;;;1.70;;
52574;SDS011;38468;48.114;-1.684;2024-03-17T07:17:08;2.10;;;1.47;;
52574;SDS011;38468;48.114;-1.684;2024-03-17T07:19:11;2.33;;;1.88;;
52574;SDS011;38468;48.114;-1.684;2024-03-17T07:21:12;35.05;;;27.38;;
52574;SDS011;38468;48.114;-1.684;2024-03-17T07:23:14;2.28;;;2.08;;
52574;SDS011;38468;48.114;-1.684;2024-03-17T07:25:15;2.08;;;1.88;;
52574;SDS011;38468;48.114;-1.684;2024-03-17T07:27:16;1.15;;;1.13;;
52574;SDS011;38468;48.114;-1.684;2024-03-17T07:29:17;3.38;;;1.63;;
52574;SDS011;38468;48.114;-1.684;2024-03-17T07:31:21;1.70;;;1.58;;
52574;SDS011;38468;48.114;-1.684;2024-03-17T07:33:22;2.40;;;1.20;;
52574;SDS011;38468;48.114;-1.684;2024-03-17T07:35:23;1.30;;;1.23;;
52574;SDS011;38468;48.114;-1.684;2024-03-17T07:37:23;1.40;;;1.30;;
52574;SDS011;38468;48.114;-1.684;2024-03-17T07:39:24;3.17;;;1.23;;
52574;SDS011;38468;48.114;-1.684;2024-03-17T07:43:27;2.35;;;1.08;;
52574;SDS011;38468;48.114;-1.684;2024-03-17T07:45:29;0.65;;;0.65;;
52574;SDS011;38468;48.114;-1.684;2024-03-17T07:47:29;0.85;;;0.85;;
52574;SDS011;38468;48.114;-1.684;2024-03-17T07:49:35;0.98;;;0.93;;
52574;SDS011;38468;48.114;-1.684;2024-03-17T07:51:36;1.13;;;0.70;;
52574;SDS011;38468;48.114;-1.684;2024-03-17T07:53:37;2.03;;;0.90;;
52574;SDS011;38468;48.114;-1.684;2024-03-17T07:55:38;2.07;;;0.80;;
52574;SDS011;38468;48.114;-1.684;2024-03-17T07:57:39;0.77;;;0.70;;
52574;SDS011;38468;48.114;-1.684;2024-03-17T07:59:40;0.70;;;0.70;;
52574;SDS011;38468;48.114;-1.684;2024-03-17T08:01:42;2.00;;;0.80;;
52574;SDS011;38468;48.114;-1.684;2024-03-17T08:03:44;1.05;;;0.95;;
52574;SDS011;38468;48.114;-1.684;2024-03-17T08:05:50;0.80;;;0.80;;
52574;SDS011;38468;48.114;-1.684;2024-03-17T08:07:51;3.28;;;2.28;;
52574;SDS011;38468;48.114;-1.684;2024-03-17T08:09:52;1.17;;;1.00;;
52574;SDS011;38468;48.114;-1.684;2024-03-17T08:11:52;0.95;;;0.90;;
52574;SDS011;38468;48.114;-1.684;2024-03-17T08:13:53;1.63;;;1.00;;
52574;SDS011;38468;48.114;-1.684;2024-03-17T08:15:59;3.95;;;0.85;;
52574;SDS011;38468;48.114;-1.684;2024-03-17T08:18:00;0.85;;;0.80;;
52574;SDS011;38468;48.114;-1.684;2024-03-17T08:20:01;2.47;;;0.95;;
52574;SDS011;38468;48.114;-1.684;2024-03-17T08:22:02;4.85;;;0.73;;
52574;SDS011;38468;48.114;-1.684;2024-03-17T08:24:02;2.00;;;1.05;;
52574;SDS011;38468;48.114;-1.684;2024-03-17T08:26:03;1.42;;;0.73;;
52574;SDS011;38468;48.114;-1.684;2024-03-17T08:28:04;0.77;;;0.68;;
52574;SDS011;38468;48.114;-1.684;2024-03-17T08:30:08;4.43;;;0.70;;
52574;SDS011;38468;48.114;-1.684;2024-03-17T08:32:13;0.93;;;0.80;;
52574;SDS011;38468;48.114;-1.684;2024-03-17T08:34:14;3.50;;;1.20;;
52574;SDS011;38468;48.114;-1.684;2024-03-17T08:36:16;1.00;;;0.90;;
52574;SDS011;38468;48.114;-1.684;2024-03-17T08:38:19;1.13;;;1.02;;
52574;SDS011;38468;48.114;-1.684;2024-03-17T08:40:20;1.15;;;0.95;;
52574;SDS011;38468;48.114;-1.684;2024-03-17T08:42:22;2.35;;;1.67;;
52574;SDS011;38468;48.114;-1.684;2024-03-17T08:44:23;1.80;;;1.02;;
52574;SDS011;38468;48.114;-1.684;2024-03-17T08:46:23;2.42;;;1.10;;
52574;SDS011;38468;48.114;-1.684;2024-03-17T08:48:25;1.17;;;0.98;;
52574;SDS011;38468;48.114;-1.684;2024-03-17T08:50:26;1.23;;;0.90;;
52574;SDS011;38468;48.114;-1.684;2024-03-17T08:52:26;1.73;;;0.73;;
52574;SDS011;38468;48.114;-1.684;2024-03-17T08:54:27;1.02;;;0.80;;
52574;SDS011;38468;48.114;-1.684;2024-03-17T08:56:27;1.30;;;1.00;;
52574;SDS011;38468;48.114;-1.684;2024-03-17T08:58:28;4.35;;;1.23;;
52574;SDS011;38468;48.114;-1.684;2024-03-17T09:00:29;2.40;;;1.10;;
52574;SDS011;38468;48.114;-1.684;2024-03-17T09:02:32;3.45;;;1.08;;
52574;SDS011;38468;48.114;-1.684;2024-03-17T09:04:32;1.20;;;0.85;;
52574;SDS011;38468;48.114;-1.684;2024-03-17T09:06:33;1.17;;;0.93;;
52574;SDS011;38468;48.114;-1.684;2024-03-17T09:08:34;0.93;;;0.93;;
52574;SDS011;38468;48.114;-1.684;2024-03-17T09:10:41;2.47;;;1.05;;
52574;SDS011;38468;48.114;-1.684;2024-03-17T09:12:43;1.13;;;1.02;;
52574;SDS011;38468;48.114;-1.684;2024-03-17T09:14:46;1.20;;;1.13;;
52574;SDS011;38468;48.114;-1.684;2024-03-17T09:16:48;1.73;;;1.63;;
52574;SDS011;38468;48.114;-1.684;2024-03-17T09:18:49;1.17;;;1.10;;
52574;SDS011;38468;48.114;-1.684;2024-03-17T09:20:57;1.00;;;1.00;;
52574;SDS011;38468;48.114;-1.684;2024-03-17T09:23:02;1.38;;;1.27;;
52574;SDS011;38468;48.114;-1.684;2024-03-17T09:25:04;1.47;;;1.13;;
52574;SDS011;38468;48.114;-1.684;2024-03-17T09:27:07;1.08;;;1.00;;
52574;SDS011;38468;48.114;-1.684;2024-03-17T09:29:08;3.50;;;1.23;;
52574;SDS011;38468;48.114;-1.684;2024-03-17T09:31:09;2.22;;;0.90;;
52574;SDS011;38468;48.114;-1.684;2024-03-17T09:33:11;1.42;;;1.13;;
52574;SDS011;38468;48.114;-1.684;2024-03-17T09:35:11;1.27;;;1.17;;
52574;SDS011;38468;48.114;-1.684;2024-03-17T09:37:12;1.15;;;1.05;;
52574;SDS011;38468;48.114;-1.684;2024-03-17T09:39:13;1.90;;;1.23;;
52574;SDS011;38468;48.114;-1.684;2024-03-17T09:41:19;1.17;;;1.10;;
52574;SDS011;38468;48.114;-1.684;2024-03-17T09:43:25;0.85;;;0.82;;
52574;SDS011;38468;48.114;-1.684;2024-03-17T09:45:26;2.80;;;1.00;;
52574;SDS011;38468;48.114;-1.684;2024-03-17T09:47:29;0.80;;;0.80;;
52574;SDS011;38468;48.114;-1.684;2024-03-17T09:49:29;15.13;;;11.32;;
52574;SDS011;38468;48.114;-1.684;2024-03-17T09:51:30;20.05;;;17.20;;
52574;SDS011;38468;48.114;-1.684;2024-03-17T09:53:32;3.85;;;3.38;;
52574;SDS011;38468;48.114;-1.684;2024-03-17T09:55:34;2.10;;;1.00;;
52574;SDS011;38468;48.114;-1.684;2024-03-17T09:57:35;1.10;;;0.95;;
52574;SDS011;38468;48.114;-1.684;2024-03-17T09:59:36;0.98;;;0.82;;
52574;SDS011;38468;48.114;-1.684;2024-03-17T10:01:37;3.00;;;0.90;;
52574;SDS011;38468;48.114;-1.684;2024-03-17T10:03:42;1.15;;;1.05;;
52574;SDS011;38468;48.114;-1.684;2024-03-17T10:05:58;0.75;;;0.75;;
52574;SDS011;38468;48.114;-1.684;2024-03-17T10:08:00;1.52;;;1.23;;
52574;SDS011;38468;48.114;-1.684;2024-03-17T10:10:10;0.95;;;0.80;;
52574;SDS011;38468;48.114;-1.684;2024-03-17T10:12:29;1.23;;;0.80;;
52574;SDS011;38468;48.114;-1.684;2024-03-17T10:14:29;2.20;;;0.70;;
52574;SDS011;38468;48.114;-1.684;2024-03-17T10:16:31;2.25;;;1.20;;
52574;SDS011;38468;48.114;-1.684;2024-03-17T10:18:33;2.63;;;1.35;;
52574;SDS011;38468;48.114;-1.684;2024-03-17T10:20:33;3.35;;;1.40;;
52574;SDS011;38468;48.114;-1.684;2024-03-17T10:22:34;0.50;;;0.40;;
52574;SDS011;38468;48.114;-1.684;2024-03-17T10:24:35;1.17;;;0.70;;
52574;SDS011;38468;48.114;-1.684;2024-03-17T10:26:36;0.47;;;0.47;;
52574;SDS011;38468;48.114;-1.684;2024-03-17T10:28:47;1.60;;;0.22;;
52574;SDS011;38468;48.114;-1.684;2024-03-17T10:30:58;1.33;;;0.70;;
52574;SDS011;38468;48.114;-1.684;2024-03-17T10:33:00;0.85;;;0.52;;
52574;SDS011;38468;48.114;-1.684;2024-03-17T10:35:02;1.80;;;1.00;;
52574;SDS011;38468;48.114;-1.684;2024-03-17T10:37:10;0.73;;;0.60;;
52574;SDS011;38468;48.114;-1.684;2024-03-17T10:39:25;0.70;;;0.70;;
52574;SDS011;38468;48.114;-1.684;2024-03-17T10:41:30;2.15;;;0.70;;
52574;SDS011;38468;48.114;-1.684;2024-03-17T10:43:33;2.17;;;0.60;;
52574;SDS011;38468;48.114;-1.684;2024-03-17T10:45:35;0.43;;;0.40;;
52574;SDS011;38468;48.114;-1.684;2024-03-17T10:47:38;1.42;;;0.50;;
52574;SDS011;38468;48.114;-1.684;2024-03-17T10:49:50;0.60;;;0.60;;
52574;SDS011;38468;48.114;-1.684;2024-03-17T10:51:53;3.15;;;1.17;;
52574;SDS011;38468;48.114;-1.684;2024-03-17T10:53:57;0.57;;;0.50;;
52574;SDS011;38468;48.114;-1.684;2024-03-17T10:56:08;2.00;;;0.82;;
52574;SDS011;38468;48.114;-1.684;2024-03-17T11:00:41;0.57;;;0.57;;
52574;SDS011;38468;48.114;-1.684;2024-03-17T11:02:44;0.50;;;0.50;;
52574;SDS011;38468;48.114;-1.684;2024-03-17T11:04:45;1.50;;;0.45;;
52574;SDS011;38468;48.114;-1.684;2024-03-17T11:06:46;1.05;;;0.50;;
52574;SDS011;38468;48.114;-1.684;2024-03-17T11:08:48;0.95;;;0.55;;
52574;SDS011;38468;48.114;-1.684;2024-03-17T11:10:49;0.90;;;0.60;;
52574;SDS011;38468;48.114;-1.684;2024-03-17T11:12:55;2.00;;;0.47;;
52574;SDS011;38468;48.114;-1.684;2024-03-17T11:15:34;1.35;;;0.60;;
52574;SDS011;38468;48.114;-1.684;2024-03-17T11:17:40;0.70;;;0.50;;
52574;SDS011;38468;48.114;-1.684;2024-03-17T11:19:41;2.13;;;0.57;;
52574;SDS011;38468;48.114;-1.684;2024-03-17T11:21:42;2.97;;;0.80;;
52574;SDS011;38468;48.114;-1.684;2024-03-17T11:23:43;1.00;;;0.60;;
52574;SDS011;38468;48.114;-1.684;2024-03-17T11:26:04;1.30;;;0.68;;
52574;SDS011;38468;48.114;-1.684;2024-03-17T11:33:18;2.42;;;1.15;;
52574;SDS011;38468;48.114;-1.684;2024-03-17T11:35:31;15.93;;;12.10;;
52574;SDS011;38468;48.114;-1.684;2024-03-17T11:37:41;3.38;;;2.60;;
52574;SDS011;38468;48.114;-1.684;2024-03-17T11:39:50;1.73;;;0.88;;
52574;SDS011;38468;48.114;-1.684;2024-03-17T11:42:04;3.72;;;0.88;;
52574;SDS011;38468;48.114;-1.684;2024-03-17T11:44:14;1.80;;;1.23;;
52574;SDS011;38468;48.114;-1.684;2024-03-17T11:46:15;2.92;;;1.08;;
52574;SDS011;38468;48.114;-1.684;2024-03-17T11:48:16;1.23;;;0.95;;
52574;SDS011;38468;48.114;-1.684;2024-03-17T11:50:17;3.65;;;1.23;;
52574;SDS011;38468;48.114;-1.684;2024-03-17T11:52:18;1.30;;;0.93;;
52574;SDS011;38468;48.114;-1.684;2024-03-17T11:54:20;1.10;;;0.90;;
52574;SDS011;38468;48.114;-1.684;2024-03-17T11:56:27;0.95;;;0.93;;
52574;SDS011;38468;48.114;-1.684;2024-03-17T11:58:29;1.98;;;1.40;;
52574;SDS011;38468;48.114;-1.684;2024-03-17T12:00:31;1.90;;;0.77;;
52574;SDS011;38468;48.114;-1.684;2024-03-17T12:02:32;3.45;;;1.13;;
52574;SDS011;38468;48.114;-1.684;2024-03-17T12:04:32;1.83;;;1.50;;
52574;SDS011;38468;48.114;-1.684;2024-03-17T12:06:43;2.08;;;1.13;;
52574;SDS011;38468;48.114;-1.684;2024-03-17T12:08:48;2.05;;;1.10;;
52574;SDS011;38468;48.114;-1.684;2024-03-17T12:10:49;1.65;;;1.13;;